Terminal Aerodrome Forecast
Issued by NWS

Home | Current Version | Previous Version | Text Only | Print | Product List | Glossary On
Versions: 1 2 3 4 5 6 7 8 9 10 11 12 13 14 15 16 17 18 19 20 21 22 23 24 25 26
000
FTUS45 KBOU 230156 AAC
TAFBJC
TAF AMD
KBJC 230156Z 2302/2324 34007KT P6SM VCSH SCT015 BKN050
     FM230300 34007KT P6SM SCT035 BKN050
     FM230600 31010KT P6SM SCT060
     FM231000 27006KT P6SM SCT060
     FM231500 02008KT P6SM SCT060
     FM231800 02012KT P6SM BKN080=

USA.gov is the U.S. government's official web portal to all federal, state and local government web resources and services.